createdAt,value
2023-05-05T00:00:24.101Z,4.20
2023-05-05T00:01:06.216Z,4.80
2023-05-05T00:01:48.083Z,4.80
2023-05-05T00:02:30.180Z,4.57
2023-05-05T00:03:12.124Z,4.60
2023-05-05T00:03:54.035Z,4.53
2023-05-05T00:04:36.070Z,4.55
2023-05-05T00:05:18.098Z,4.32
2023-05-05T00:05:59.903Z,4.20
2023-05-05T00:06:43.872Z,4.72
2023-05-05T00:07:25.645Z,4.90
2023-05-05T00:08:07.894Z,4.25
2023-05-05T00:08:49.954Z,4.65
2023-05-05T00:09:33.861Z,4.80
2023-05-05T00:10:15.631Z,5.17
2023-05-05T00:11:00.105Z,4.50
2023-05-05T00:11:42.163Z,5.00
2023-05-05T00:12:24.175Z,4.50
2023-05-05T00:13:06.538Z,4.10
2023-05-05T00:13:49.004Z,4.20
2023-05-05T00:14:33.087Z,4.80
2023-05-05T00:15:15.027Z,4.90
2023-05-05T00:15:56.866Z,4.38
2023-05-05T00:16:38.794Z,4.90
2023-05-05T00:17:20.687Z,4.88
2023-05-05T00:18:03.227Z,4.50
2023-05-05T00:18:45.123Z,4.30
2023-05-05T00:19:27.181Z,5.05
2023-05-05T00:20:10.158Z,4.45
2023-05-05T00:20:52.340Z,4.47
2023-05-05T00:21:34.128Z,4.60
2023-05-05T00:22:18.279Z,4.70
2023-05-05T00:23:00.020Z,4.90
2023-05-05T00:23:44.017Z,4.68
2023-05-05T00:24:26.203Z,4.47
2023-05-05T00:25:08.511Z,5.10
2023-05-05T00:25:53.412Z,4.95
2023-05-05T00:26:35.358Z,5.07
2023-05-05T00:27:17.126Z,4.30
2023-05-05T00:27:59.170Z,4.80
2023-05-05T00:28:43.279Z,5.00
2023-05-05T00:29:25.285Z,5.10
2023-05-05T00:30:08.365Z,4.88
2023-05-05T00:30:50.597Z,4.53
2023-05-05T00:31:33.143Z,4.35
2023-05-05T00:32:15.168Z,4.60
2023-05-05T00:32:57.405Z,5.23
2023-05-05T00:33:39.610Z,4.70
2023-05-05T00:34:21.577Z,4.85
2023-05-05T00:35:03.617Z,5.07
2023-05-05T00:35:45.570Z,4.90
2023-05-05T00:36:28.498Z,4.68
2023-05-05T00:37:10.287Z,5.03
2023-05-05T00:37:54.350Z,5.40
2023-05-05T00:38:36.296Z,5.60
2023-05-05T00:39:18.265Z,5.30
2023-05-05T00:40:00.290Z,4.70
2023-05-05T00:40:42.433Z,4.63
2023-05-05T00:41:24.309Z,4.30
2023-05-05T00:42:06.215Z,5.40
2023-05-05T00:42:52.385Z,5.40
2023-05-05T00:43:34.289Z,5.00
2023-05-05T00:44:18.432Z,4.72
2023-05-05T00:45:00.292Z,5.03
2023-05-05T00:45:44.620Z,4.90
2023-05-05T00:46:29.568Z,4.50
2023-05-05T00:47:12.827Z,5.03
2023-05-05T00:47:59.769Z,5.22
2023-05-05T00:48:41.792Z,5.05
2023-05-05T00:49:23.838Z,5.30
2023-05-05T00:50:09.503Z,4.68
2023-05-05T00:50:52.413Z,4.70
2023-05-05T00:51:34.480Z,4.70
2023-05-05T00:52:16.279Z,4.68
2023-05-05T00:53:01.544Z,4.40
2023-05-05T00:53:45.111Z,5.07
2023-05-05T00:54:27.314Z,5.20
2023-05-05T00:55:10.221Z,5.10
2023-05-05T00:55:52.429Z,4.95
2023-05-05T00:56:34.288Z,5.05
2023-05-05T00:57:16.644Z,5.13
2023-05-05T00:57:59.257Z,5.45
2023-05-05T00:58:44.401Z,5.70
2023-05-05T00:59:29.631Z,5.03
2023-05-05T01:00:12.467Z,4.80
2023-05-05T01:00:54.232Z,5.35
2023-05-05T01:01:38.330Z,5.60
2023-05-05T01:02:20.188Z,5.50
2023-05-05T01:03:02.370Z,5.45
2023-05-05T01:03:44.392Z,4.70
2023-05-05T01:04:29.425Z,4.70
2023-05-05T01:05:13.335Z,5.00
2023-05-05T01:06:07.394Z,4.88
2023-05-05T01:06:58.577Z,5.10
2023-05-05T01:07:54.890Z,4.78
2023-05-05T01:09:02.049Z,5.05
2023-05-05T01:10:19.080Z,5.28
2023-05-05T01:11:10.227Z,4.75
2023-05-05T01:12:03.789Z,5.45
2023-05-05T01:13:04.326Z,5.33
2023-05-05T01:14:03.726Z,5.25
2023-05-05T01:14:57.263Z,6.20
2023-05-05T01:15:53.465Z,5.13
2023-05-05T01:16:37.876Z,5.10
2023-05-05T01:17:30.011Z,5.20
2023-05-05T01:18:27.705Z,5.43
2023-05-05T01:19:34.504Z,5.10
2023-05-05T01:20:24.850Z,5.10
2023-05-05T01:21:31.664Z,5.05
2023-05-05T01:22:18.031Z,5.55
2023-05-05T01:23:05.904Z,4.90
2023-05-05T01:24:06.631Z,5.10
2023-05-05T01:25:24.342Z,5.30
2023-05-05T01:26:18.977Z,5.68
2023-05-05T01:27:30.565Z,5.40
2023-05-05T01:28:30.371Z,5.30
2023-05-05T01:29:30.674Z,5.20
2023-05-05T01:30:23.717Z,6.00
2023-05-05T01:31:21.630Z,5.50
2023-05-05T01:32:07.981Z,5.60
2023-05-05T01:32:55.406Z,5.80
2023-05-05T01:33:48.885Z,5.45
2023-05-05T01:34:39.045Z,5.88
2023-05-05T01:35:30.073Z,5.65
2023-05-05T01:36:22.676Z,5.70
2023-05-05T01:37:45.982Z,5.50
2023-05-05T01:38:38.763Z,5.53
2023-05-05T01:39:26.497Z,5.97
2023-05-05T01:40:10.744Z,5.80
2023-05-05T01:41:14.526Z,6.30
2023-05-05T01:42:00.129Z,5.38
2023-05-05T01:42:43.556Z,5.50
2023-05-05T01:43:29.570Z,5.55
2023-05-05T01:44:13.420Z,5.60
2023-05-05T01:44:57.619Z,5.90
2023-05-05T01:45:45.609Z,6.03
2023-05-05T01:46:27.756Z,6.00
2023-05-05T01:47:15.021Z,6.10
2023-05-05T01:47:58.869Z,5.53
2023-05-05T01:48:42.670Z,6.00
2023-05-05T01:49:25.518Z,5.40
2023-05-05T01:50:09.970Z,5.70
2023-05-05T01:50:53.364Z,5.85
2023-05-05T01:51:36.788Z,5.20
2023-05-05T01:52:19.539Z,5.50
2023-05-05T01:53:03.746Z,6.22
2023-05-05T01:53:47.341Z,5.93
2023-05-05T01:54:29.691Z,6.10
2023-05-05T01:55:13.801Z,6.28
2023-05-05T01:55:57.872Z,6.00
2023-05-05T01:56:42.072Z,6.20
2023-05-05T01:57:29.098Z,6.05
2023-05-05T01:58:12.086Z,5.85
2023-05-05T01:58:55.906Z,6.35
2023-05-05T01:59:39.782Z,6.05
2023-05-05T02:00:25.291Z,6.25
2023-05-05T02:01:07.652Z,5.65
2023-05-05T02:01:50.974Z,5.43
2023-05-05T02:02:35.234Z,6.13
2023-05-05T02:03:18.141Z,5.90
2023-05-05T02:04:03.188Z,5.90
2023-05-05T02:04:49.081Z,5.60
2023-05-05T02:05:32.680Z,6.18
2023-05-05T02:06:16.238Z,6.13
2023-05-05T02:06:59.758Z,6.10
2023-05-05T02:07:42.021Z,6.03
2023-05-05T02:08:29.347Z,6.00
2023-05-05T02:09:13.131Z,6.20
2023-05-05T02:09:56.416Z,6.63
2023-05-05T02:10:42.830Z,6.43
2023-05-05T02:11:26.427Z,5.90
2023-05-05T02:12:08.934Z,6.80
2023-05-05T02:12:52.280Z,6.60
2023-05-05T02:13:35.639Z,6.70
2023-05-05T02:14:22.297Z,6.32
2023-05-05T02:15:04.866Z,6.00
2023-05-05T02:15:49.833Z,5.80
2023-05-05T02:16:33.251Z,6.53
2023-05-05T02:17:17.190Z,7.30
2023-05-05T02:18:00.454Z,7.10
2023-05-05T02:18:43.155Z,6.53
2023-05-05T02:19:34.464Z,6.60
2023-05-05T02:20:17.906Z,6.03
2023-05-05T02:20:59.840Z,6.30
2023-05-05T02:21:42.331Z,5.80
2023-05-05T02:22:24.329Z,6.45
2023-05-05T02:23:08.112Z,5.93
2023-05-05T02:23:54.131Z,6.40
2023-05-05T02:24:36.066Z,6.28
2023-05-05T02:25:18.257Z,6.07
2023-05-05T02:26:06.134Z,7.13
2023-05-05T02:26:54.178Z,6.40
2023-05-05T02:27:37.341Z,7.20
2023-05-05T02:28:29.171Z,6.60
2023-05-05T02:29:18.957Z,6.90
2023-05-05T02:30:09.119Z,7.35
2023-05-05T02:30:58.115Z,6.75
2023-05-05T02:31:45.419Z,6.90
2023-05-05T02:32:31.415Z,6.90
2023-05-05T02:33:16.178Z,6.82
2023-05-05T02:34:04.189Z,6.70
2023-05-05T02:34:50.734Z,6.88
2023-05-05T02:35:38.137Z,6.90
2023-05-05T02:36:22.689Z,7.40
2023-05-05T02:37:12.603Z,7.03
2023-05-05T02:38:03.069Z,6.72
2023-05-05T02:38:46.440Z,6.80
2023-05-05T02:39:35.639Z,6.95
2023-05-05T02:40:22.383Z,7.00
2023-05-05T02:41:05.929Z,6.90
2023-05-05T02:41:49.762Z,6.63
2023-05-05T02:42:41.012Z,6.53
2023-05-05T02:43:24.648Z,6.15
2023-05-05T02:44:08.378Z,6.63
2023-05-05T02:44:51.856Z,6.95
2023-05-05T02:45:33.873Z,7.60
2023-05-05T02:46:18.171Z,7.10
2023-05-05T02:47:00.034Z,7.13
2023-05-05T02:47:44.457Z,6.93
2023-05-05T02:48:26.296Z,7.07
2023-05-05T02:49:08.724Z,6.72
2023-05-05T02:49:50.613Z,7.05
2023-05-05T02:50:33.320Z,7.20
2023-05-05T02:51:15.783Z,6.97
2023-05-05T02:51:58.172Z,6.63
2023-05-05T02:52:40.322Z,6.80
2023-05-05T02:53:26.284Z,6.90
2023-05-05T02:54:08.786Z,7.75
2023-05-05T02:54:51.122Z,7.20
2023-05-05T02:55:49.999Z,7.85
2023-05-05T02:57:04.379Z,6.55
2023-05-05T02:58:04.859Z,6.97
2023-05-05T02:58:54.515Z,7.93
2023-05-05T02:59:52.202Z,7.63
2023-05-05T03:00:55.525Z,7.20
2023-05-05T03:01:51.192Z,7.88
2023-05-05T03:03:16.525Z,6.93
2023-05-05T03:04:15.346Z,7.10
2023-05-05T03:05:06.119Z,7.60
2023-05-05T03:05:58.878Z,7.38
2023-05-05T03:06:42.930Z,8.00
2023-05-05T03:07:49.859Z,7.35
2023-05-05T03:09:13.234Z,7.47
2023-05-05T03:10:03.368Z,7.80
2023-05-05T03:10:58.933Z,7.20
2023-05-05T03:12:05.397Z,6.65
2023-05-05T03:12:52.995Z,7.28
2023-05-05T03:13:39.567Z,7.00
2023-05-05T03:14:22.726Z,7.10
2023-05-05T03:15:07.254Z,7.00
2023-05-05T03:15:52.601Z,7.30
2023-05-05T03:16:38.995Z,7.63
2023-05-05T03:17:23.419Z,7.63
2023-05-05T03:18:08.331Z,7.43
2023-05-05T03:18:51.130Z,7.18
2023-05-05T03:19:34.439Z,7.30
2023-05-05T03:20:16.725Z,7.60
2023-05-05T03:21:07.845Z,7.13
2023-05-05T03:21:49.727Z,7.30
2023-05-05T03:22:35.075Z,7.70
2023-05-05T03:23:20.850Z,7.40
2023-05-05T03:24:18.255Z,6.93
2023-05-05T03:25:00.170Z,8.07
2023-05-05T03:25:45.140Z,7.60
2023-05-05T03:26:27.045Z,7.40
2023-05-05T03:27:09.002Z,7.50
2023-05-05T03:27:51.123Z,7.25
2023-05-05T03:28:33.444Z,6.90
2023-05-05T03:29:15.852Z,7.10
2023-05-05T03:29:57.658Z,7.85
2023-05-05T03:30:39.671Z,6.95
2023-05-05T03:31:21.561Z,7.90
2023-05-05T03:32:04.652Z,8.13
2023-05-05T03:32:46.608Z,7.53
2023-05-05T03:33:31.274Z,7.32
2023-05-05T03:34:13.694Z,7.10
2023-05-05T03:34:55.650Z,7.40
2023-05-05T03:35:37.422Z,7.60
2023-05-05T03:36:19.294Z,7.50
2023-05-05T03:37:01.100Z,7.63
2023-05-05T03:37:43.431Z,8.05
2023-05-05T03:38:25.249Z,8.35
2023-05-05T03:39:09.592Z,7.82
2023-05-05T03:39:51.354Z,8.10
2023-05-05T03:40:43.542Z,8.10
2023-05-05T03:41:27.881Z,8.10
2023-05-05T03:42:09.655Z,8.30
2023-05-05T03:42:51.420Z,8.32
2023-05-05T03:43:33.473Z,7.93
2023-05-05T03:44:15.478Z,7.90
2023-05-05T03:44:59.763Z,7.55
2023-05-05T03:45:41.579Z,7.50
2023-05-05T03:46:24.061Z,7.28
2023-05-05T03:47:06.012Z,8.13
2023-05-05T03:47:49.960Z,8.40
2023-05-05T03:48:31.781Z,8.27
2023-05-05T03:49:13.963Z,7.50
2023-05-05T03:49:56.242Z,7.10
2023-05-05T03:50:38.533Z,7.70
2023-05-05T03:51:20.594Z,7.88
2023-05-05T03:52:02.472Z,8.02
2023-05-05T03:52:44.399Z,7.95
2023-05-05T03:53:26.191Z,7.55
2023-05-05T03:54:08.446Z,8.20
2023-05-05T03:54:50.213Z,8.73
2023-05-05T03:55:34.058Z,7.95
2023-05-05T03:56:15.860Z,7.22
2023-05-05T03:56:58.452Z,7.63
2023-05-05T03:57:40.264Z,8.07
2023-05-05T03:58:24.432Z,7.90
2023-05-05T03:59:06.391Z,7.60
2023-05-05T03:59:48.581Z,7.55
2023-05-05T04:00:30.584Z,8.35
2023-05-05T04:01:14.652Z,7.97
2023-05-05T04:01:56.846Z,7.47
2023-05-05T04:02:41.843Z,7.70
2023-05-05T04:03:26.477Z,7.22
2023-05-05T04:04:09.589Z,7.60
2023-05-05T04:04:51.510Z,8.20
2023-05-05T04:05:33.556Z,7.70
2023-05-05T04:06:15.576Z,7.30
2023-05-05T04:06:57.416Z,7.68
2023-05-05T04:07:39.258Z,8.55
2023-05-05T04:08:21.098Z,8.90
2023-05-05T04:09:03.531Z,8.40
2023-05-05T04:09:45.599Z,7.57
2023-05-05T04:10:27.371Z,8.00
2023-05-05T04:11:09.430Z,8.32
2023-05-05T04:11:51.254Z,9.68
2023-05-05T04:12:33.704Z,10.02
2023-05-05T04:13:15.846Z,9.15
2023-05-05T04:13:57.720Z,9.02
2023-05-05T04:14:39.670Z,8.18
2023-05-05T04:15:21.747Z,8.20
2023-05-05T04:16:06.468Z,8.32
2023-05-05T04:16:48.653Z,8.57
2023-05-05T04:17:30.780Z,8.23
2023-05-05T04:18:12.790Z,8.00
2023-05-05T04:18:55.374Z,7.95
2023-05-05T04:19:39.362Z,7.78
2023-05-05T04:20:21.535Z,8.38
2023-05-05T04:21:03.638Z,7.85
2023-05-05T04:21:45.518Z,7.85
2023-05-05T04:22:29.772Z,8.20
2023-05-05T04:23:11.620Z,8.40
2023-05-05T04:23:53.699Z,8.38
2023-05-05T04:24:35.664Z,8.20
2023-05-05T04:25:17.780Z,8.10
2023-05-05T04:25:59.590Z,8.02
2023-05-05T04:26:41.504Z,8.45
2023-05-05T04:27:26.178Z,8.55
2023-05-05T04:28:08.587Z,8.30
2023-05-05T04:28:50.487Z,9.10
2023-05-05T04:29:32.653Z,8.75
2023-05-05T04:30:15.250Z,8.25
2023-05-05T04:30:59.541Z,7.60
2023-05-05T04:31:41.422Z,8.77
2023-05-05T04:32:23.699Z,8.88
2023-05-05T04:33:05.505Z,8.18
2023-05-05T04:33:47.590Z,8.00
2023-05-05T04:34:29.488Z,9.10
2023-05-05T04:35:11.309Z,9.10
2023-05-05T04:35:53.684Z,8.52
2023-05-05T04:36:35.743Z,8.35
2023-05-05T04:37:19.664Z,8.38
2023-05-05T04:38:01.941Z,8.30
2023-05-05T04:38:46.437Z,8.27
2023-05-05T04:39:28.725Z,8.40
2023-05-05T04:40:10.974Z,7.93
2023-05-05T04:40:52.768Z,8.00
2023-05-05T04:41:34.823Z,8.15
2023-05-05T04:42:16.643Z,8.07
2023-05-05T04:42:58.483Z,8.60
2023-05-05T04:43:40.962Z,8.50
2023-05-05T04:44:22.740Z,7.57
2023-05-05T04:45:05.087Z,8.23
2023-05-05T04:45:54.031Z,8.10
2023-05-05T04:46:36.073Z,8.02
2023-05-05T04:47:18.023Z,7.80
2023-05-05T04:48:00.248Z,8.48
2023-05-05T04:48:44.170Z,8.70
2023-05-05T04:49:26.148Z,8.63
2023-05-05T04:50:08.993Z,7.70
2023-05-05T04:50:51.392Z,8.23
2023-05-05T04:51:33.692Z,8.70
2023-05-05T04:52:15.666Z,7.78
2023-05-05T04:52:59.866Z,8.15
2023-05-05T04:53:41.623Z,8.50
2023-05-05T04:54:23.792Z,8.48
2023-05-05T04:55:06.356Z,9.20
2023-05-05T04:55:48.691Z,8.30
2023-05-05T04:56:31.968Z,8.50
2023-05-05T04:57:14.237Z,8.20
2023-05-05T04:57:56.079Z,8.18
2023-05-05T04:58:37.968Z,8.40
2023-05-05T04:59:19.893Z,9.10
2023-05-05T05:00:01.884Z,9.38
2023-05-05T05:00:46.290Z,8.52
2023-05-05T05:01:28.132Z,8.20
2023-05-05T05:02:10.051Z,8.07
2023-05-05T05:02:52.568Z,7.70
2023-05-05T05:03:34.661Z,8.25
2023-05-05T05:04:18.588Z,8.50
2023-05-05T05:05:00.568Z,8.73
2023-05-05T05:05:44.765Z,8.55
2023-05-05T05:06:29.373Z,8.30
2023-05-05T05:07:11.336Z,8.00
2023-05-05T05:07:53.187Z,8.20
2023-05-05T05:08:35.053Z,8.15
2023-05-05T05:09:17.023Z,8.05
2023-05-05T05:09:59.467Z,8.02
2023-05-05T05:10:41.494Z,7.93
2023-05-05T05:11:23.918Z,8.25
2023-05-05T05:12:05.919Z,8.20
2023-05-05T05:12:48.986Z,8.10
2023-05-05T05:13:31.045Z,7.88
2023-05-05T05:14:12.912Z,8.40
2023-05-05T05:14:54.720Z,7.88
2023-05-05T05:15:39.475Z,8.02
2023-05-05T05:16:21.662Z,9.25
2023-05-05T05:17:03.930Z,8.82
2023-05-05T05:17:45.751Z,8.23
2023-05-05T05:18:27.837Z,9.45
2023-05-05T05:19:09.722Z,8.60
2023-05-05T05:19:51.588Z,8.07
2023-05-05T05:20:33.968Z,7.40
2023-05-05T05:21:16.377Z,7.78
2023-05-05T05:21:58.232Z,8.10
2023-05-05T05:22:41.022Z,8.07
2023-05-05T05:23:22.905Z,7.70
2023-05-05T05:24:05.137Z,8.27
2023-05-05T05:24:46.947Z,8.90
2023-05-05T05:25:29.406Z,8.00
2023-05-05T05:26:11.446Z,7.88
2023-05-05T05:26:55.658Z,8.23
2023-05-05T05:27:39.787Z,7.82
2023-05-05T05:28:21.640Z,8.07
2023-05-05T05:29:04.058Z,7.97
2023-05-05T05:29:46.099Z,7.60
2023-05-05T05:30:27.934Z,7.60
2023-05-05T05:31:09.749Z,7.80
2023-05-05T05:31:53.716Z,8.13
2023-05-05T05:32:35.565Z,8.25
2023-05-05T05:33:19.599Z,9.10
2023-05-05T05:34:03.679Z,8.85
2023-05-05T05:34:45.591Z,8.30
2023-05-05T05:35:29.532Z,8.35
2023-05-05T05:36:11.274Z,8.13
2023-05-05T05:36:56.048Z,8.02
2023-05-05T05:37:38.048Z,8.40
2023-05-05T05:38:19.895Z,7.68
2023-05-05T05:39:01.686Z,8.30
2023-05-05T05:39:43.909Z,8.02
2023-05-05T05:40:26.434Z,7.90
2023-05-05T05:41:10.896Z,7.75
2023-05-05T05:41:53.072Z,8.10
2023-05-05T05:42:34.895Z,8.35
2023-05-05T05:43:19.001Z,9.05
2023-05-05T05:44:00.774Z,8.75
2023-05-05T05:44:43.110Z,7.70
2023-05-05T05:45:25.242Z,8.45
2023-05-05T05:46:09.045Z,8.60
2023-05-05T05:46:51.193Z,8.00
2023-05-05T05:47:33.628Z,8.00
2023-05-05T05:48:17.776Z,8.15
2023-05-05T05:48:59.667Z,8.30
2023-05-05T05:49:41.458Z,9.00
2023-05-05T05:50:24.677Z,9.05
2023-05-05T05:51:08.831Z,9.50
2023-05-05T05:51:50.738Z,9.90
2023-05-05T05:52:33.663Z,9.07
2023-05-05T05:53:15.447Z,8.60
2023-05-05T05:53:58.897Z,9.35
2023-05-05T05:54:40.886Z,8.40
2023-05-05T05:55:23.288Z,8.35
2023-05-05T05:56:07.803Z,8.90
2023-05-05T05:56:49.692Z,9.60
2023-05-05T05:57:31.460Z,9.82
2023-05-05T05:58:15.616Z,9.50
2023-05-05T05:58:58.019Z,9.60
2023-05-05T05:59:39.833Z,9.60
2023-05-05T06:00:24.110Z,8.60
2023-05-05T06:01:06.029Z,9.55
2023-05-05T06:01:48.196Z,10.60
2023-05-05T06:02:30.091Z,10.25
2023-05-05T06:03:12.392Z,10.02
2023-05-05T06:03:54.396Z,9.90
2023-05-05T06:04:36.566Z,9.63
2023-05-05T06:05:18.838Z,9.70
2023-05-05T06:06:00.629Z,9.48
2023-05-05T06:06:42.535Z,10.38
2023-05-05T06:07:24.411Z,9.90
2023-05-05T06:08:06.325Z,8.82
2023-05-05T06:08:48.369Z,9.30
2023-05-05T06:09:30.303Z,10.48
2023-05-05T06:10:26.578Z,9.98
2023-05-05T06:11:09.984Z,8.52
2023-05-05T06:11:53.960Z,9.90
2023-05-05T06:12:35.827Z,9.82
2023-05-05T06:13:18.174Z,9.88
2023-05-05T06:14:00.032Z,10.10
2023-05-05T06:14:43.976Z,10.90
2023-05-05T06:15:26.021Z,10.50
2023-05-05T06:16:08.318Z,9.85
2023-05-05T06:16:52.749Z,10.77
2023-05-05T06:17:34.653Z,10.65
2023-05-05T06:18:16.674Z,9.55
2023-05-05T06:19:01.080Z,10.07
2023-05-05T06:19:43.409Z,10.10
2023-05-05T06:20:25.406Z,10.30
2023-05-05T06:21:07.297Z,9.38
2023-05-05T06:21:49.105Z,9.30
2023-05-05T06:22:30.885Z,9.40
2023-05-05T06:23:12.677Z,9.30
2023-05-05T06:23:54.480Z,10.18
2023-05-05T06:24:36.259Z,10.20
2023-05-05T06:25:18.089Z,9.70
2023-05-05T06:26:00.009Z,10.25
2023-05-05T06:26:44.186Z,10.77
2023-05-05T06:27:26.019Z,10.63
2023-05-05T06:28:07.935Z,9.90
2023-05-05T06:28:49.976Z,10.25
2023-05-05T06:29:34.555Z,10.13
2023-05-05T06:30:16.541Z,9.45
2023-05-05T06:30:58.705Z,10.07
2023-05-05T06:31:40.694Z,10.43
2023-05-05T06:32:22.526Z,11.43
2023-05-05T06:33:04.372Z,11.38
2023-05-05T06:33:46.323Z,11.30
2023-05-05T06:34:28.320Z,10.48
2023-05-05T06:35:10.559Z,10.70
2023-05-05T06:35:55.123Z,10.00
2023-05-05T06:36:39.407Z,10.45
2023-05-05T06:37:21.241Z,10.70
2023-05-05T06:38:03.264Z,10.65
2023-05-05T06:38:45.091Z,10.20
2023-05-05T06:39:29.782Z,11.05
2023-05-05T06:40:14.459Z,10.65
2023-05-05T06:40:58.512Z,10.73
2023-05-05T06:41:40.642Z,10.23
2023-05-05T06:42:22.577Z,10.48
2023-05-05T06:43:04.726Z,10.85
2023-05-05T06:43:49.081Z,10.40
2023-05-05T06:44:31.193Z,9.88
2023-05-05T06:45:13.480Z,10.45
2023-05-05T06:45:55.404Z,10.90
2023-05-05T06:46:39.608Z,11.32
2023-05-05T06:47:21.759Z,11.50
2023-05-05T06:48:06.129Z,11.03
2023-05-05T06:48:48.390Z,12.05
2023-05-05T06:49:30.226Z,11.40
2023-05-05T06:50:12.313Z,11.18
2023-05-05T06:50:54.457Z,11.73
2023-05-05T06:51:36.310Z,11.60
2023-05-05T06:52:18.461Z,11.50
2023-05-05T06:53:00.687Z,11.00
2023-05-05T06:53:42.535Z,11.07
2023-05-05T06:54:24.499Z,10.98
2023-05-05T06:55:09.027Z,10.90
2023-05-05T06:55:51.724Z,10.75
2023-05-05T06:56:33.921Z,10.80
2023-05-05T06:57:15.688Z,10.90
2023-05-05T06:57:57.671Z,10.60
2023-05-05T06:58:39.515Z,11.50
2023-05-05T06:59:21.479Z,11.50
2023-05-05T07:00:06.053Z,11.10
2023-05-05T07:00:48.427Z,10.52
2023-05-05T07:01:30.256Z,9.93
2023-05-05T07:02:14.183Z,10.48
2023-05-05T07:02:56.073Z,11.40
2023-05-05T07:03:37.938Z,12.00
2023-05-05T07:04:19.852Z,11.25
2023-05-05T07:05:04.580Z,10.70
2023-05-05T07:05:46.325Z,10.80
2023-05-05T07:06:28.578Z,10.65
2023-05-05T07:07:10.428Z,10.80
2023-05-05T07:07:53.969Z,10.85
2023-05-05T07:08:35.819Z,10.95
2023-05-05T07:09:18.686Z,10.35
2023-05-05T07:10:00.975Z,10.75
2023-05-05T07:10:42.913Z,10.55
2023-05-05T07:11:24.910Z,10.30
2023-05-05T07:12:07.043Z,10.15
2023-05-05T07:12:49.434Z,10.73
2023-05-05T07:13:31.289Z,10.40
2023-05-05T07:14:13.095Z,10.48
2023-05-05T07:14:54.887Z,10.90
2023-05-05T07:15:36.761Z,9.73
2023-05-05T07:16:18.557Z,10.95
2023-05-05T07:17:00.468Z,10.95
2023-05-05T07:17:44.975Z,10.85
2023-05-05T07:18:26.837Z,10.60
2023-05-05T07:19:08.974Z,10.27
2023-05-05T07:19:51.760Z,9.82
2023-05-05T07:20:34.104Z,10.50
2023-05-05T07:21:15.952Z,10.48
2023-05-05T07:21:57.766Z,10.85
2023-05-05T07:22:39.730Z,11.00
2023-05-05T07:23:21.813Z,10.70
2023-05-05T07:24:04.118Z,10.27
2023-05-05T07:24:45.994Z,11.13
2023-05-05T07:25:27.837Z,11.02
2023-05-05T07:26:09.722Z,10.60
2023-05-05T07:26:51.576Z,10.10
2023-05-05T07:27:33.715Z,10.48
2023-05-05T07:28:15.545Z,10.07
2023-05-05T07:28:58.960Z,9.88
2023-05-05T07:29:40.986Z,9.93
2023-05-05T07:30:24.793Z,9.73
2023-05-05T07:31:06.965Z,10.13
2023-05-05T07:31:49.109Z,9.77
2023-05-05T07:32:31.429Z,10.10
2023-05-05T07:33:14.535Z,9.85
2023-05-05T07:33:56.341Z,9.90
2023-05-05T07:34:40.283Z,10.00
2023-05-05T07:35:23.524Z,10.27
2023-05-05T07:36:05.681Z,10.40
2023-05-05T07:36:47.509Z,10.38
2023-05-05T07:37:29.324Z,9.77
2023-05-05T07:38:11.346Z,9.98
2023-05-05T07:38:53.674Z,10.00
2023-05-05T07:39:35.666Z,9.90
2023-05-05T07:40:19.522Z,9.75
2023-05-05T07:41:01.442Z,8.98
2023-05-05T07:41:46.346Z,9.93
2023-05-05T07:42:30.579Z,11.02
2023-05-05T07:43:14.827Z,9.70
2023-05-05T07:43:56.683Z,9.25
2023-05-05T07:44:38.505Z,9.30
2023-05-05T07:45:20.872Z,9.70
2023-05-05T07:46:02.827Z,9.68
2023-05-05T07:46:44.708Z,9.75
2023-05-05T07:47:26.796Z,9.75
2023-05-05T07:48:09.159Z,9.45
2023-05-05T07:48:51.236Z,9.52
2023-05-05T07:49:33.058Z,8.82
2023-05-05T07:50:15.330Z,8.52
2023-05-05T07:50:59.684Z,7.82
2023-05-05T07:51:42.167Z,7.25
2023-05-05T07:52:37.077Z,8.20
2023-05-05T07:53:25.826Z,9.02
2023-05-05T07:54:07.669Z,9.35
2023-05-05T07:54:49.709Z,8.75
2023-05-05T07:55:31.515Z,8.43
2023-05-05T07:56:13.823Z,8.65
2023-05-05T07:56:59.298Z,8.30
2023-05-05T07:57:41.140Z,8.50
2023-05-05T07:58:23.006Z,8.35
2023-05-05T07:59:04.899Z,8.27
2023-05-05T07:59:46.699Z,7.70
2023-05-05T08:00:28.680Z,7.72
2023-05-05T08:01:12.708Z,7.85
2023-05-05T08:01:55.090Z,7.90
2023-05-05T08:02:37.029Z,9.02
2023-05-05T08:03:24.882Z,8.70
2023-05-05T08:04:07.099Z,9.20
2023-05-05T08:04:51.377Z,9.00
2023-05-05T08:05:33.671Z,8.60
2023-05-05T08:06:33.571Z,9.63
2023-05-05T08:07:15.618Z,8.75
2023-05-05T08:07:59.516Z,8.82
2023-05-05T08:08:41.473Z,8.70
2023-05-05T08:09:25.848Z,8.38
2023-05-05T08:10:10.393Z,8.70
2023-05-05T08:10:53.193Z,7.80
2023-05-05T08:11:35.198Z,8.13
2023-05-05T08:12:19.060Z,7.75
2023-05-05T08:13:01.166Z,7.90
2023-05-05T08:13:43.273Z,8.30
2023-05-05T08:14:25.048Z,9.13
2023-05-05T08:15:09.876Z,8.98
2023-05-05T08:15:53.291Z,8.48
2023-05-05T08:16:35.397Z,8.40
2023-05-05T08:17:19.929Z,8.82
2023-05-05T08:18:01.815Z,8.98
2023-05-05T08:18:43.956Z,8.25
2023-05-05T08:19:29.202Z,7.72
2023-05-05T08:20:11.839Z,8.20
2023-05-05T08:20:54.730Z,8.48
2023-05-05T08:21:36.599Z,7.80
2023-05-05T08:22:18.868Z,7.32
2023-05-05T08:23:00.653Z,7.40
2023-05-05T08:23:42.542Z,6.60
2023-05-05T08:24:26.522Z,7.10
2023-05-05T08:25:10.954Z,7.10
2023-05-05T08:25:52.895Z,7.60
2023-05-05T08:26:34.717Z,9.30
2023-05-05T08:27:16.559Z,9.95
2023-05-05T08:27:58.433Z,10.30
2023-05-05T08:28:40.319Z,10.55
2023-05-05T08:29:22.125Z,10.40
2023-05-05T08:30:04.797Z,9.95
2023-05-05T08:30:47.097Z,10.32
2023-05-05T08:31:32.804Z,9.88
2023-05-05T08:32:16.258Z,10.75
2023-05-05T08:32:59.064Z,10.52
2023-05-05T08:33:41.105Z,10.40
2023-05-05T08:34:23.463Z,10.00
2023-05-05T08:35:09.451Z,9.30
2023-05-05T08:35:54.005Z,9.63
2023-05-05T08:36:35.934Z,11.65
2023-05-05T08:37:18.931Z,11.45
2023-05-05T08:38:00.727Z,12.30
2023-05-05T08:38:43.450Z,11.73
2023-05-05T08:39:27.536Z,11.95
2023-05-05T08:40:14.024Z,12.00
2023-05-05T08:40:56.195Z,11.38
2023-05-05T08:41:38.393Z,11.63
2023-05-05T08:42:35.509Z,11.07
2023-05-05T08:43:24.002Z,11.68
2023-05-05T08:44:05.926Z,12.23
2023-05-05T08:44:47.985Z,11.48
2023-05-05T08:45:30.619Z,11.38
2023-05-05T08:46:12.942Z,12.80
2023-05-05T08:46:55.796Z,11.82
2023-05-05T08:47:39.046Z,11.18
2023-05-05T08:48:23.304Z,11.55
2023-05-05T08:49:06.152Z,12.77
2023-05-05T08:49:48.036Z,12.63
2023-05-05T08:50:30.964Z,12.35
2023-05-05T08:51:20.144Z,11.20
2023-05-05T08:52:06.012Z,12.68
2023-05-05T08:52:54.349Z,12.80
2023-05-05T08:54:03.987Z,12.52
2023-05-05T08:54:54.395Z,11.95
2023-05-05T08:55:45.467Z,11.90
2023-05-05T08:56:32.497Z,12.43
2023-05-05T08:57:18.092Z,12.10
2023-05-05T08:58:06.423Z,12.40
2023-05-05T08:58:49.588Z,12.23
2023-05-05T08:59:33.518Z,12.40
2023-05-05T09:00:16.188Z,12.50
2023-05-05T09:00:58.699Z,11.90
2023-05-05T09:01:42.019Z,12.60
2023-05-05T09:02:28.505Z,12.43
2023-05-05T09:03:14.365Z,11.60
2023-05-05T09:03:59.085Z,12.30
2023-05-05T09:04:43.899Z,13.07
2023-05-05T09:05:28.930Z,12.60
2023-05-05T09:06:11.039Z,12.48
2023-05-05T09:06:53.040Z,12.35
2023-05-05T09:07:35.497Z,10.90
2023-05-05T09:08:18.650Z,10.55
2023-05-05T09:09:01.396Z,11.30
2023-05-05T09:09:44.244Z,11.90
2023-05-05T09:10:28.830Z,10.52
2023-05-05T09:11:11.431Z,10.10
2023-05-05T09:11:55.723Z,9.65
2023-05-05T09:12:41.249Z,9.10
2023-05-05T09:13:23.809Z,10.05
2023-05-05T09:14:05.665Z,9.05
2023-05-05T09:14:47.485Z,8.40
2023-05-05T09:15:29.477Z,8.15
2023-05-05T09:16:11.498Z,9.60
2023-05-05T09:16:53.802Z,10.40
2023-05-05T09:17:36.379Z,12.07
2023-05-05T09:18:18.280Z,13.55
2023-05-05T09:19:04.348Z,13.85
2023-05-05T09:20:04.896Z,13.38
2023-05-05T09:20:48.884Z,12.10
2023-05-05T09:21:31.027Z,13.50
2023-05-05T09:22:13.121Z,13.50
2023-05-05T09:22:54.879Z,13.00
2023-05-05T09:23:37.034Z,13.82
2023-05-05T09:24:18.907Z,14.32
2023-05-05T09:25:00.990Z,14.38
2023-05-05T09:26:04.465Z,14.05
2023-05-05T09:26:48.373Z,13.60
2023-05-05T09:27:30.442Z,14.07
2023-05-05T09:28:13.641Z,13.65
2023-05-05T09:28:55.746Z,12.98
2023-05-05T09:29:38.163Z,12.60
2023-05-05T09:30:27.065Z,12.80
2023-05-05T09:31:16.153Z,13.55
2023-05-05T09:32:08.685Z,13.68
2023-05-05T09:32:53.322Z,13.68
2023-05-05T09:33:35.343Z,13.27
2023-05-05T09:34:17.250Z,12.20
2023-05-05T09:35:01.023Z,12.70
2023-05-05T09:35:53.275Z,13.20
2023-05-05T09:36:45.392Z,13.30
2023-05-05T09:37:29.129Z,12.63
2023-05-05T09:38:14.009Z,13.10
2023-05-05T09:39:06.390Z,13.23
2023-05-05T09:39:55.035Z,12.90
2023-05-05T09:40:48.833Z,13.02
2023-05-05T09:41:41.004Z,12.80
2023-05-05T09:42:23.173Z,12.50
2023-05-05T09:43:04.971Z,12.27
2023-05-05T09:43:53.858Z,12.98
2023-05-05T09:44:37.403Z,13.65
2023-05-05T09:45:19.145Z,12.60